createdAt,value
2023-05-21T00:00:29.082Z,51.216225
2023-05-21T00:01:29.067Z,51.216045
2023-05-21T00:02:29.143Z,51.216125
2023-05-21T00:03:29.124Z,51.216087
2023-05-21T00:04:29.070Z,51.216099
2023-05-21T00:05:29.057Z,51.216038
2023-05-21T00:06:29.127Z,51.216068
2023-05-21T00:07:29.062Z,51.216076
2023-05-21T00:08:29.024Z,51.216072
2023-05-21T00:09:29.027Z,51.215965
2023-05-21T00:10:29.058Z,51.216064
2023-05-21T00:11:28.990Z,51.216072
2023-05-21T00:12:29.015Z,51.216030
2023-05-21T00:13:28.997Z,51.216072
2023-05-21T00:14:28.973Z,51.216125
2023-05-21T00:15:28.975Z,51.216026
2023-05-21T00:16:29.058Z,51.216167
2023-05-21T00:17:28.989Z,51.216137
2023-05-21T00:18:28.957Z,51.215919
2023-05-21T00:19:29.006Z,51.215878
2023-05-21T00:20:28.934Z,51.215916
2023-05-21T00:21:28.933Z,51.215832
2023-05-21T00:22:28.924Z,51.215843
2023-05-21T00:23:28.921Z,51.215904
2023-05-21T00:24:28.901Z,51.215950
2023-05-21T00:25:28.904Z,51.216038
2023-05-21T00:26:28.914Z,51.215916
2023-05-21T00:27:28.905Z,51.216011
2023-05-21T00:28:28.880Z,51.216026
2023-05-21T00:29:28.872Z,51.215988
2023-05-21T00:30:28.886Z,51.215935
2023-05-21T00:31:28.907Z,51.215973
2023-05-21T00:32:28.878Z,51.215912
2023-05-21T00:33:28.839Z,51.216095
2023-05-21T00:34:28.833Z,51.216125
2023-05-21T00:35:28.833Z,51.216164
2023-05-21T00:36:28.848Z,51.216167
2023-05-21T00:37:28.819Z,51.216068
2023-05-21T00:38:28.815Z,51.216087
2023-05-21T00:39:28.805Z,51.216183
2023-05-21T00:40:28.810Z,51.216236
2023-05-21T00:41:28.802Z,51.216221
2023-05-21T00:42:28.790Z,51.216160
2023-05-21T00:43:28.800Z,51.216042
2023-05-21T00:44:28.764Z,51.216091
2023-05-21T00:45:28.776Z,51.216286
2023-05-21T00:46:28.799Z,51.216175
2023-05-21T00:48:28.749Z,51.216003
2023-05-21T00:49:28.732Z,51.215904
2023-05-21T00:50:28.735Z,51.216061
2023-05-21T00:51:28.726Z,51.216026
2023-05-21T00:52:28.711Z,51.215942
2023-05-21T00:53:28.702Z,51.216007
2023-05-21T00:54:28.725Z,51.215885
2023-05-21T00:55:28.696Z,51.215687
2023-05-21T00:56:28.694Z,51.215504
2023-05-21T00:57:28.687Z,51.215565
2023-05-21T00:58:28.670Z,51.215645
2023-05-21T00:59:28.667Z,51.215714
2023-05-21T01:00:28.655Z,51.215641
2023-05-21T01:01:28.743Z,51.215515
2023-05-21T01:02:28.740Z,51.215691
2023-05-21T01:03:28.747Z,51.215969
2023-05-21T01:04:28.638Z,51.216011
2023-05-21T01:05:28.637Z,51.216026
2023-05-21T01:06:28.610Z,51.216064
2023-05-21T01:07:28.647Z,51.216122
2023-05-21T01:08:28.610Z,51.216022
2023-05-21T01:09:28.611Z,51.215977
2023-05-21T01:10:28.612Z,51.215809
2023-05-21T01:11:28.588Z,51.215912
2023-05-21T01:12:28.575Z,51.215981
2023-05-21T01:13:28.579Z,51.215847
2023-05-21T01:14:28.571Z,51.215954
2023-05-21T01:15:28.566Z,51.216045
2023-05-21T01:16:28.566Z,51.215858
2023-05-21T01:17:28.587Z,51.215816
2023-05-21T01:18:28.568Z,51.215752
2023-05-21T01:19:28.557Z,51.215805
2023-05-21T01:20:28.574Z,51.216011
2023-05-21T01:21:28.517Z,51.216026
2023-05-21T01:22:28.543Z,51.216122
2023-05-21T01:23:28.502Z,51.216103
2023-05-21T01:24:28.497Z,51.215893
2023-05-21T01:25:28.509Z,51.216209
2023-05-21T01:26:28.497Z,51.216213
2023-05-21T01:27:28.490Z,51.216202
2023-05-21T01:28:28.480Z,51.216175
2023-05-21T01:29:28.474Z,51.216179
2023-05-21T01:30:28.465Z,51.216259
2023-05-21T01:31:28.498Z,51.216145
2023-05-21T01:32:28.473Z,51.216221
2023-05-21T01:33:28.518Z,51.216156
2023-05-21T01:34:28.427Z,51.216179
2023-05-21T01:35:28.436Z,51.216145
2023-05-21T01:36:28.443Z,51.216160
2023-05-21T01:37:28.427Z,51.216171
2023-05-21T01:38:28.415Z,51.216171
2023-05-21T01:39:28.410Z,51.215981
2023-05-21T01:40:28.400Z,51.216103
2023-05-21T01:41:28.436Z,51.216099
2023-05-21T01:42:28.389Z,51.216244
2023-05-21T01:43:28.388Z,51.216236
2023-05-21T01:44:28.381Z,51.216221
2023-05-21T01:45:28.365Z,51.216099
2023-05-21T01:46:28.442Z,51.216206
2023-05-21T01:47:28.368Z,51.216122
2023-05-21T01:48:28.359Z,51.216171
2023-05-21T01:49:28.349Z,51.216114
2023-05-21T01:50:28.357Z,51.215992
2023-05-21T01:51:28.336Z,51.216129
2023-05-21T01:52:29.329Z,51.216038
2023-05-21T01:53:28.317Z,51.215942
2023-05-21T01:54:28.305Z,51.216110
2023-05-21T01:55:28.314Z,51.216160
2023-05-21T01:56:28.301Z,51.216114
2023-05-21T01:57:28.277Z,51.216183
2023-05-21T01:58:28.289Z,51.216103
2023-05-21T01:59:28.273Z,51.216026
2023-05-21T02:00:28.284Z,51.216087
2023-05-21T02:01:28.285Z,51.216129
2023-05-21T02:02:28.308Z,51.216171
2023-05-21T02:03:28.351Z,51.216156
2023-05-21T02:04:28.234Z,51.216076
2023-05-21T02:05:28.229Z,51.216057
2023-05-21T02:06:28.217Z,51.216038
2023-05-21T02:07:28.215Z,51.216084
2023-05-21T02:08:28.225Z,51.216118
2023-05-21T02:09:28.199Z,51.215958
2023-05-21T02:10:28.244Z,51.216068
2023-05-21T02:11:28.199Z,51.216152
2023-05-21T02:12:28.190Z,51.216125
2023-05-21T02:13:28.191Z,51.216099
2023-05-21T02:14:28.206Z,51.216137
2023-05-21T02:15:28.167Z,51.216125
2023-05-21T02:16:28.176Z,51.216103
2023-05-21T02:17:28.171Z,51.216148
2023-05-21T02:18:28.166Z,51.216175
2023-05-21T02:19:28.261Z,51.216194
2023-05-21T02:20:28.134Z,51.216164
2023-05-21T02:21:28.138Z,51.216103
2023-05-21T02:22:28.133Z,51.216148
2023-05-21T02:23:28.150Z,51.216110
2023-05-21T02:24:28.114Z,51.216099
2023-05-21T02:25:28.104Z,51.216099
2023-05-21T02:26:28.105Z,51.216145
2023-05-21T02:27:28.096Z,51.216175
2023-05-21T02:28:28.083Z,51.216072
2023-05-21T02:29:28.103Z,51.216148
2023-05-21T02:30:28.098Z,51.216118
2023-05-21T02:31:28.056Z,51.216110
2023-05-21T02:32:28.088Z,51.216084
2023-05-21T02:33:28.075Z,51.216057
2023-05-21T02:34:28.108Z,51.216003
2023-05-21T02:35:28.054Z,51.216103
2023-05-21T02:36:28.033Z,51.216164
2023-05-21T02:37:28.024Z,51.216084
2023-05-21T02:38:28.024Z,51.216095
2023-05-21T02:39:28.009Z,51.216049
2023-05-21T02:40:28.023Z,51.215973
2023-05-21T02:41:28.009Z,51.216099
2023-05-21T02:42:27.992Z,51.216095
2023-05-21T02:43:27.991Z,51.216030
2023-05-21T02:44:28.002Z,51.216057
2023-05-21T02:45:27.979Z,51.216148
2023-05-21T02:46:28.014Z,51.216095
2023-05-21T02:47:27.987Z,51.216152
2023-05-21T02:48:27.971Z,51.216030
2023-05-21T02:49:27.987Z,51.216007
2023-05-21T02:50:27.936Z,51.216106
2023-05-21T02:51:27.956Z,51.216114
2023-05-21T02:52:27.921Z,51.216129
2023-05-21T02:53:28.924Z,51.216141
2023-05-21T02:54:27.934Z,51.216141
2023-05-21T02:55:27.914Z,51.216129
2023-05-21T02:56:27.913Z,51.216095
2023-05-21T02:57:27.903Z,51.216152
2023-05-21T02:58:27.894Z,51.216175
2023-05-21T02:59:27.878Z,51.216049
2023-05-21T03:00:27.873Z,51.216042
2023-05-21T03:01:27.932Z,51.216099
2023-05-21T03:02:27.909Z,51.216152
2023-05-21T03:03:28.077Z,51.216125
2023-05-21T03:04:27.850Z,51.216099
2023-05-21T03:05:27.866Z,51.216118
2023-05-21T03:06:27.839Z,51.216110
2023-05-21T03:07:27.835Z,51.216122
2023-05-21T03:08:27.847Z,51.216202
2023-05-21T03:09:27.825Z,51.216183
2023-05-21T03:10:27.806Z,51.216148
2023-05-21T03:11:27.806Z,51.216187
2023-05-21T03:12:27.812Z,51.216160
2023-05-21T03:13:27.823Z,51.216171
2023-05-21T03:14:27.784Z,51.216171
2023-05-21T03:15:27.821Z,51.216259
2023-05-21T03:16:27.856Z,51.216152
2023-05-21T03:17:27.776Z,51.216148
2023-05-21T03:18:27.795Z,51.216137
2023-05-21T03:19:27.824Z,51.216133
2023-05-21T03:20:27.767Z,51.216118
2023-05-21T03:21:27.754Z,51.216072
2023-05-21T03:22:27.729Z,51.216118
2023-05-21T03:23:27.726Z,51.216156
2023-05-21T03:24:27.729Z,51.216087
2023-05-21T03:25:27.712Z,51.216087
2023-05-21T03:26:27.721Z,51.216141
2023-05-21T03:27:27.710Z,51.216122
2023-05-21T03:28:27.712Z,51.216087
2023-05-21T03:29:27.689Z,51.216099
2023-05-21T03:30:27.696Z,51.216148
2023-05-21T03:31:27.738Z,51.216087
2023-05-21T03:32:27.706Z,51.216084
2023-05-21T03:33:27.678Z,51.216072
2023-05-21T03:34:27.661Z,51.216080
2023-05-21T03:35:27.704Z,51.216019
2023-05-21T03:36:27.649Z,51.216103
2023-05-21T03:37:27.651Z,51.216118
2023-05-21T03:38:27.654Z,51.216103
2023-05-21T03:39:27.639Z,51.216160
2023-05-21T03:40:27.655Z,51.216164
2023-05-21T03:41:27.621Z,51.216167
2023-05-21T03:42:27.628Z,51.216137
2023-05-21T03:43:27.613Z,51.216125
2023-05-21T03:44:27.599Z,51.216198
2023-05-21T03:45:27.628Z,51.216133
2023-05-21T03:46:27.612Z,51.216156
2023-05-21T03:47:28.622Z,51.216114
2023-05-21T03:48:27.595Z,51.216133
2023-05-21T03:49:27.571Z,51.216141
2023-05-21T03:50:27.572Z,51.216133
2023-05-21T03:51:27.599Z,51.216160
2023-05-21T03:52:27.602Z,51.216137
2023-05-21T03:53:27.546Z,51.216114
2023-05-21T03:54:27.550Z,51.216087
2023-05-21T03:55:27.574Z,51.216091
2023-05-21T03:56:27.558Z,51.216061
2023-05-21T03:57:27.523Z,51.216053
2023-05-21T03:58:27.513Z,51.216087
2023-05-21T03:59:27.522Z,51.216110
2023-05-21T04:00:27.501Z,51.216114
2023-05-21T04:01:27.534Z,51.216061
2023-05-21T04:02:27.692Z,51.216080
2023-05-21T04:03:27.646Z,51.216064
2023-05-21T04:04:27.519Z,51.216064
2023-05-21T04:05:27.472Z,51.216152
2023-05-21T04:06:27.496Z,51.216099
2023-05-21T04:07:27.467Z,51.216061
2023-05-21T04:08:27.444Z,51.216026
2023-05-21T04:09:27.451Z,51.216042
2023-05-21T04:10:27.457Z,51.216015
2023-05-21T04:11:27.432Z,51.216034
2023-05-21T04:12:27.448Z,51.215973
2023-05-21T04:13:27.412Z,51.216000
2023-05-21T04:14:27.415Z,51.215954
2023-05-21T04:15:27.406Z,51.215897
2023-05-21T04:16:27.428Z,51.215935
2023-05-21T04:17:27.491Z,51.215893
2023-05-21T04:18:27.390Z,51.215881
2023-05-21T04:19:27.417Z,51.215954
2023-05-21T04:20:27.387Z,51.215832
2023-05-21T04:21:27.375Z,51.215893
2023-05-21T04:22:27.368Z,51.215874
2023-05-21T04:23:27.380Z,51.215881
2023-05-21T04:24:27.342Z,51.215885
2023-05-21T04:25:28.335Z,51.215950
2023-05-21T04:26:27.332Z,51.215981
2023-05-21T04:27:27.341Z,51.215935
2023-05-21T04:28:27.335Z,51.215954
2023-05-21T04:29:27.302Z,51.216015
2023-05-21T04:30:27.317Z,51.216019
2023-05-21T04:31:27.332Z,51.216068
2023-05-21T04:32:27.336Z,51.216038
2023-05-21T04:33:27.310Z,51.215954
2023-05-21T04:34:27.287Z,51.216064
2023-05-21T04:35:27.287Z,51.216064
2023-05-21T04:36:27.255Z,51.215996
2023-05-21T04:37:27.266Z,51.215862
2023-05-21T04:38:27.242Z,51.215847
2023-05-21T04:39:27.235Z,51.215828
2023-05-21T04:40:27.240Z,51.215881
2023-05-21T04:41:27.225Z,51.215942
2023-05-21T04:42:27.227Z,51.215961
2023-05-21T04:43:27.239Z,51.216003
2023-05-21T04:44:27.220Z,51.216026
2023-05-21T04:45:27.186Z,51.216000
2023-05-21T04:46:27.235Z,51.215916
2023-05-21T04:47:27.234Z,51.215652
2023-05-21T04:48:27.296Z,51.215744
2023-05-21T04:49:27.168Z,51.215889
2023-05-21T04:50:27.193Z,51.215965
2023-05-21T04:51:27.154Z,51.215958
2023-05-21T04:52:27.145Z,51.215965
2023-05-21T04:53:27.132Z,51.216038
2023-05-21T04:54:27.135Z,51.216022
2023-05-21T04:55:27.147Z,51.216099
2023-05-21T04:56:27.140Z,51.216015
2023-05-21T04:57:27.108Z,51.216156
2023-05-21T04:58:27.107Z,51.215862
2023-05-21T04:59:27.098Z,51.215843
2023-05-21T05:00:27.092Z,51.215919
2023-05-21T05:01:27.325Z,51.215969
2023-05-21T05:02:27.114Z,51.216034
2023-05-21T05:03:27.148Z,51.216110
2023-05-21T05:04:27.066Z,51.216125
2023-05-21T05:05:27.059Z,51.216137
2023-05-21T05:06:27.073Z,51.216072
2023-05-21T05:07:27.035Z,51.216099
2023-05-21T05:08:27.032Z,51.216034
2023-05-21T05:09:27.034Z,51.216011
2023-05-21T05:10:27.011Z,51.215969
2023-05-21T05:11:27.029Z,51.216038
2023-05-21T05:12:27.034Z,51.215958
2023-05-21T05:13:26.999Z,51.215950
2023-05-21T05:14:26.984Z,51.215878
2023-05-21T05:15:26.983Z,51.216076
2023-05-21T05:16:27.036Z,51.216042
2023-05-21T05:17:27.019Z,51.216087
2023-05-21T05:18:26.957Z,51.216125
2023-05-21T05:19:27.077Z,51.216103
2023-05-21T05:20:26.948Z,51.216095
2023-05-21T05:21:26.953Z,51.216145
2023-05-21T05:22:26.922Z,51.216187
2023-05-21T05:23:26.937Z,51.216187
2023-05-21T05:24:26.919Z,51.216164
2023-05-21T05:25:26.913Z,51.216183
2023-05-21T05:26:26.920Z,51.216137
2023-05-21T05:27:26.890Z,51.216125
2023-05-21T05:28:26.906Z,51.216160
2023-05-21T05:29:26.881Z,51.216091
2023-05-21T05:30:26.894Z,51.216118
2023-05-21T05:31:26.985Z,51.216118
2023-05-21T05:32:26.884Z,51.216133
2023-05-21T05:33:26.836Z,51.216091
2023-05-21T05:34:26.847Z,51.216122
2023-05-21T05:35:26.843Z,51.216133
2023-05-21T05:36:26.843Z,51.216156
2023-05-21T05:37:26.823Z,51.216072
2023-05-21T05:38:26.812Z,51.216095
2023-05-21T05:39:26.805Z,51.216106
2023-05-21T05:40:26.817Z,51.216145
2023-05-21T05:41:26.807Z,51.216114
2023-05-21T05:42:26.791Z,51.216084
2023-05-21T05:43:26.771Z,51.216118
2023-05-21T05:44:26.768Z,51.216103
2023-05-21T05:45:26.798Z,51.216122
2023-05-21T05:46:26.773Z,51.216087
2023-05-21T05:47:26.790Z,51.216091
2023-05-21T05:48:26.744Z,51.216190
2023-05-21T05:49:26.726Z,51.216171
2023-05-21T05:50:26.746Z,51.216118
2023-05-21T05:51:26.714Z,51.216080
2023-05-21T05:52:26.729Z,51.216080
2023-05-21T05:53:26.696Z,51.216129
2023-05-21T05:54:26.700Z,51.216145
2023-05-21T05:55:26.738Z,51.216129
2023-05-21T05:56:26.682Z,51.216084
2023-05-21T05:57:26.693Z,51.216133
2023-05-21T05:58:26.672Z,51.216080
2023-05-21T05:59:26.669Z,51.216072
2023-05-21T06:00:26.646Z,51.216125
2023-05-21T06:01:26.668Z,51.216133
2023-05-21T06:02:26.688Z,51.216129
2023-05-21T06:03:26.753Z,51.216129
2023-05-21T06:04:26.633Z,51.216137
2023-05-21T06:05:26.643Z,51.216175
2023-05-21T06:06:26.619Z,51.216015
2023-05-21T06:07:26.605Z,51.216049
2023-05-21T06:08:26.611Z,51.216026
2023-05-21T06:09:26.612Z,51.215973
2023-05-21T06:10:26.584Z,51.216030
2023-05-21T06:11:26.605Z,51.216057
2023-05-21T06:12:26.568Z,51.216072
2023-05-21T06:13:26.572Z,51.216137
2023-05-21T06:14:26.565Z,51.215996
2023-05-21T06:15:26.576Z,51.216003
2023-05-21T06:16:26.666Z,51.216129
2023-05-21T06:17:26.588Z,51.216202
2023-05-21T06:18:26.545Z,51.216137
2023-05-21T06:19:26.609Z,51.216156
2023-05-21T06:20:26.522Z,51.216076
2023-05-21T06:21:26.538Z,51.216042
2023-05-21T06:22:26.503Z,51.216095
2023-05-21T06:23:26.499Z,51.216064
2023-05-21T06:24:26.494Z,51.216087
2023-05-21T06:25:26.506Z,51.216190
2023-05-21T06:26:26.491Z,51.216175
2023-05-21T06:27:26.474Z,51.216106
2023-05-21T06:28:26.462Z,51.216103
2023-05-21T06:29:26.483Z,51.216095
2023-05-21T06:30:26.476Z,51.216095
2023-05-21T06:31:26.472Z,51.216156
2023-05-21T06:32:26.491Z,51.216114
2023-05-21T06:33:26.550Z,51.216076
2023-05-21T06:34:26.434Z,51.216061
2023-05-21T06:35:26.425Z,51.216000
2023-05-21T06:36:26.437Z,51.216042
2023-05-21T06:37:26.815Z,51.216080
2023-05-21T06:38:27.401Z,51.216072
2023-05-21T06:39:26.395Z,51.216068
2023-05-21T06:40:26.393Z,51.216213
2023-05-21T06:41:26.384Z,51.216213
2023-05-21T06:42:26.381Z,51.216187
2023-05-21T06:43:26.381Z,51.216072
2023-05-21T06:44:26.361Z,51.216106
2023-05-21T06:45:26.381Z,51.216160
2023-05-21T06:46:26.417Z,51.216118
2023-05-21T06:47:26.367Z,51.216045
2023-05-21T06:48:26.330Z,51.216064
2023-05-21T06:49:26.324Z,51.216099
2023-05-21T06:50:26.327Z,51.216129
2023-05-21T06:51:27.345Z,51.216148
2023-05-21T06:52:26.311Z,51.216129
2023-05-21T06:53:26.335Z,51.216129
2023-05-21T06:54:27.116Z,51.216141
2023-05-21T06:55:27.288Z,51.216171
2023-05-21T06:56:26.316Z,51.216145
2023-05-21T06:57:26.287Z,51.216133
2023-05-21T06:58:26.269Z,51.216122
2023-05-21T06:59:26.260Z,51.216106
2023-05-21T07:00:26.259Z,51.216061
2023-05-21T07:01:26.379Z,51.216053
2023-05-21T07:02:26.374Z,51.216076
2023-05-21T07:03:26.307Z,51.216049
2023-05-21T07:04:26.226Z,51.216133
2023-05-21T07:05:26.235Z,51.216095
2023-05-21T07:06:26.308Z,51.216095
2023-05-21T07:07:26.223Z,51.216080
2023-05-21T07:08:26.209Z,51.216057
2023-05-21T07:09:26.221Z,51.216087
2023-05-21T07:10:26.206Z,51.216030
2023-05-21T07:11:26.248Z,51.216038
2023-05-21T07:12:26.175Z,51.216030
2023-05-21T07:13:26.178Z,51.215977
2023-05-21T07:14:26.456Z,51.215931
2023-05-21T07:15:26.162Z,51.216019
2023-05-21T07:16:26.179Z,51.216015
2023-05-21T07:17:26.161Z,51.215935
2023-05-21T07:18:26.134Z,51.215977
2023-05-21T07:19:26.185Z,51.215858
2023-05-21T07:20:26.159Z,51.216011
2023-05-21T07:21:26.115Z,51.216076
2023-05-21T07:22:28.066Z,51.216034
2023-05-21T07:23:27.116Z,51.216057
2023-05-21T07:24:26.080Z,51.216084
2023-05-21T07:25:26.118Z,51.216034
2023-05-21T07:26:26.085Z,51.216381
2023-05-21T07:27:26.430Z,51.216156
2023-05-21T07:28:26.062Z,51.216156
2023-05-21T07:29:26.058Z,51.216187
2023-05-21T07:30:26.056Z,51.216125
2023-05-21T07:31:26.110Z,51.216175
2023-05-21T07:32:26.042Z,51.216106
2023-05-21T07:33:26.031Z,51.215996
2023-05-21T07:34:26.049Z,51.216076
2023-05-21T07:35:26.021Z,51.215958
2023-05-21T07:36:26.010Z,51.216030
2023-05-21T07:37:26.049Z,51.216209
2023-05-21T07:38:26.007Z,51.216194
2023-05-21T07:39:25.986Z,51.216145
2023-05-21T07:40:25.982Z,51.216202
2023-05-21T07:41:25.999Z,51.216194
2023-05-21T07:42:25.968Z,51.216167
2023-05-21T07:43:25.960Z,51.216106
2023-05-21T07:44:25.963Z,51.216068
2023-05-21T07:45:25.955Z,51.216007
2023-05-21T07:46:25.987Z,51.216064
2023-05-21T07:47:26.034Z,51.216103
2023-05-21T07:48:25.932Z,51.216095
2023-05-21T07:49:25.928Z,51.216087
2023-05-21T07:50:25.917Z,51.216053
2023-05-21T07:51:25.962Z,51.216026
2023-05-21T07:52:25.927Z,51.216080
2023-05-21T07:53:25.893Z,51.215984
2023-05-21T07:54:25.897Z,51.216049
2023-05-21T07:55:25.916Z,51.216099
2023-05-21T07:56:25.910Z,51.216114
2023-05-21T07:57:25.879Z,51.216042
2023-05-21T07:58:25.868Z,51.216137
2023-05-21T07:59:25.873Z,51.216091
2023-05-21T08:00:25.857Z,51.216064
2023-05-21T08:01:25.894Z,51.216076
2023-05-21T08:02:25.966Z,51.216068
2023-05-21T08:03:25.923Z,51.216110
2023-05-21T08:04:26.017Z,51.216099
2023-05-21T08:05:25.852Z,51.216160
2023-05-21T08:06:25.827Z,51.216194
2023-05-21T08:07:25.822Z,51.216187
2023-05-21T08:08:25.815Z,51.216133
2023-05-21T08:09:25.824Z,51.216106
2023-05-21T08:10:25.803Z,51.216125
2023-05-21T08:11:26.433Z,51.216076
2023-05-21T08:12:25.800Z,51.216000
2023-05-21T08:13:26.010Z,51.216064
2023-05-21T08:14:25.779Z,51.216053
2023-05-21T08:15:25.777Z,51.216003
2023-05-21T08:16:25.843Z,51.216114
2023-05-21T08:17:25.789Z,51.216110
2023-05-21T08:18:25.868Z,51.216053
2023-05-21T08:19:25.804Z,51.216148
2023-05-21T08:20:25.732Z,51.216129
2023-05-21T08:21:25.726Z,51.216129
2023-05-21T08:22:25.728Z,51.216164
2023-05-21T08:23:25.717Z,51.216099
2023-05-21T08:24:25.707Z,51.216190
2023-05-21T08:25:25.697Z,51.216198
2023-05-21T08:26:25.793Z,51.216164
2023-05-21T08:27:25.855Z,51.216042
2023-05-21T08:28:25.684Z,51.215954
2023-05-21T08:29:25.674Z,51.216030
2023-05-21T08:30:25.691Z,51.216118
2023-05-21T08:31:25.688Z,51.216160
2023-05-21T08:32:25.663Z,51.216110
2023-05-21T08:33:25.671Z,51.216156
2023-05-21T08:34:25.639Z,51.216110
2023-05-21T08:35:25.634Z,51.216133
2023-05-21T08:36:25.625Z,51.216099
2023-05-21T08:37:25.618Z,51.216190
2023-05-21T08:38:26.989Z,51.216190
2023-05-21T08:39:25.614Z,51.216175
2023-05-21T08:40:25.588Z,51.216202
2023-05-21T08:41:25.589Z,51.216240
2023-05-21T08:42:36.335Z,51.216362
2023-05-21T08:43:27.599Z,51.216145
2023-05-21T08:44:25.580Z,51.216114
2023-05-21T08:45:25.575Z,51.216156
2023-05-21T08:46:25.635Z,51.216408
2023-05-21T08:47:25.578Z,51.216373
2023-05-21T08:48:25.566Z,51.216335
2023-05-21T08:49:27.163Z,51.216377
2023-05-21T08:50:26.547Z,51.216442
2023-05-21T08:51:25.545Z,51.216408
2023-05-21T08:52:25.524Z,51.216396
2023-05-21T08:53:28.729Z,51.216267
2023-05-21T08:54:26.510Z,51.215961
2023-05-21T08:55:25.515Z,51.215973
2023-05-21T08:56:25.503Z,51.216042
2023-05-21T08:57:25.510Z,51.216270
2023-05-21T08:58:25.501Z,51.216129
2023-05-21T08:59:25.489Z,51.216156
2023-05-21T09:00:25.494Z,51.216248
2023-05-21T09:01:26.651Z,51.216175
2023-05-21T09:02:26.536Z,51.216240
2023-05-21T09:03:25.518Z,51.216309
2023-05-21T09:04:25.498Z,51.216263
2023-05-21T09:05:25.449Z,51.216156
2023-05-21T09:06:25.426Z,51.216145
2023-05-21T09:07:25.426Z,51.216103
2023-05-21T09:08:25.425Z,51.216099
2023-05-21T09:09:25.418Z,51.216187
2023-05-21T09:10:25.412Z,51.216156
2023-05-21T09:11:25.405Z,51.216148
2023-05-21T09:12:25.412Z,51.215992
2023-05-21T09:13:25.400Z,51.216175
2023-05-21T09:14:25.509Z,51.215939
2023-05-21T09:15:25.424Z,51.216221
2023-05-21T09:16:25.447Z,51.216274
2023-05-21T09:17:25.440Z,51.216209
2023-05-21T09:18:25.366Z,51.216160
2023-05-21T09:19:25.410Z,51.216221
2023-05-21T09:20:25.378Z,51.216278
2023-05-21T09:21:25.360Z,51.216400
2023-05-21T09:22:25.329Z,51.216297
2023-05-21T09:23:25.340Z,51.216160
2023-05-21T09:24:25.342Z,51.216103
2023-05-21T09:25:25.352Z,51.216194
2023-05-21T09:26:25.329Z,51.216198
2023-05-21T09:27:25.301Z,51.216209
2023-05-21T09:28:25.300Z,51.216084
2023-05-21T09:29:25.292Z,51.216267
2023-05-21T09:30:35.714Z,51.216190
2023-05-21T09:31:27.418Z,51.216301
2023-05-21T09:32:25.312Z,51.216301
2023-05-21T09:33:25.259Z,51.216274
2023-05-21T09:34:25.290Z,51.216080
2023-05-21T09:35:25.256Z,51.216148
2023-05-21T09:36:25.253Z,51.216125
2023-05-21T09:37:27.639Z,51.216187
2023-05-21T09:38:26.259Z,51.216194
2023-05-21T09:39:25.240Z,51.216217
2023-05-21T09:40:25.246Z,51.216164
2023-05-21T09:41:25.241Z,51.216225
2023-05-21T09:42:25.210Z,51.216152
2023-05-21T09:43:25.210Z,51.216068
2023-05-21T09:44:25.209Z,51.216202
2023-05-21T09:45:25.485Z,51.216152
2023-05-21T09:46:25.204Z,51.216072
2023-05-21T09:47:25.206Z,51.215961
2023-05-21T09:48:25.189Z,51.216198
2023-05-21T09:49:25.237Z,51.216354
2023-05-21T09:50:25.172Z,51.216099
2023-05-21T09:51:25.164Z,51.216324
2023-05-21T09:52:25.150Z,51.216187
2023-05-21T09:53:25.174Z,51.216042
2023-05-21T09:54:25.170Z,51.216106
2023-05-21T09:55:25.141Z,51.216076
2023-05-21T09:56:25.125Z,51.216045
2023-05-21T09:57:25.959Z,51.216042
2023-05-21T09:58:25.123Z,51.216164
2023-05-21T09:59:25.147Z,51.216152
2023-05-21T10:00:25.124Z,51.216183
2023-05-21T10:01:25.222Z,51.216148
2023-05-21T10:02:25.118Z,51.216270
2023-05-21T10:03:25.098Z,51.216106
2023-05-21T10:05:25.088Z,51.215836
2023-05-21T10:06:25.071Z,51.215961
2023-05-21T10:07:25.068Z,51.216080
2023-05-21T10:08:25.062Z,51.216118
2023-05-21T10:09:25.084Z,51.216080
2023-05-21T10:10:25.088Z,51.216145
2023-05-21T10:11:25.036Z,51.216152
2023-05-21T10:12:25.031Z,51.216122
2023-05-21T10:13:25.038Z,51.216175
2023-05-21T10:14:25.043Z,51.216297
2023-05-21T10:15:25.024Z,51.216194
2023-05-21T10:16:25.042Z,51.216187
2023-05-21T10:17:25.040Z,51.216194
2023-05-21T10:18:24.989Z,51.216160
2023-05-21T10:19:25.762Z,51.216099
2023-05-21T10:20:24.999Z,51.216137
2023-05-21T10:21:24.984Z,51.216137
2023-05-21T10:22:24.968Z,51.216122
2023-05-21T10:23:24.956Z,51.216061
2023-05-21T10:24:24.961Z,51.216095
2023-05-21T10:25:24.979Z,51.216110
2023-05-21T10:26:24.945Z,51.216156
2023-05-21T10:27:24.944Z,51.216080
2023-05-21T10:28:24.924Z,51.216000
2023-05-21T10:29:24.925Z,51.216087
2023-05-21T10:30:24.919Z,51.216061
2023-05-21T10:31:25.272Z,51.216148
2023-05-21T10:32:25.021Z,51.216152
2023-05-21T10:33:24.958Z,51.216087
2023-05-21T10:34:24.891Z,51.216164
2023-05-21T10:35:24.900Z,51.216038
2023-05-21T10:36:24.885Z,51.216030
2023-05-21T10:37:24.870Z,51.216118
2023-05-21T10:38:24.903Z,51.216091
2023-05-21T10:39:24.863Z,51.216087
2023-05-21T10:40:24.852Z,51.216076
2023-05-21T10:41:24.885Z,51.216076
2023-05-21T10:42:24.862Z,51.216084
2023-05-21T10:43:24.847Z,51.216171
2023-05-21T10:44:24.850Z,51.216267
2023-05-21T10:45:24.843Z,51.216301
2023-05-21T10:46:24.853Z,51.216351
2023-05-21T10:47:24.824Z,51.216354
2023-05-21T10:48:24.818Z,51.216183
2023-05-21T10:49:24.815Z,51.216148
2023-05-21T10:50:24.796Z,51.216118
2023-05-21T10:51:24.799Z,51.216156
2023-05-21T10:52:24.802Z,51.216221
2023-05-21T10:53:24.797Z,51.216175
2023-05-21T10:54:24.794Z,51.216141
2023-05-21T10:55:24.768Z,51.216183
2023-05-21T10:56:24.771Z,51.216167
2023-05-21T10:57:24.759Z,51.216194
2023-05-21T10:58:24.753Z,51.216248
2023-05-21T10:59:24.770Z,51.216228
2023-05-21T11:00:24.737Z,51.216240
2023-05-21T11:01:24.827Z,51.216129
2023-05-21T11:02:24.766Z,51.216122
2023-05-21T11:03:24.939Z,51.216114
2023-05-21T11:04:24.725Z,51.216137
2023-05-21T11:05:24.695Z,51.216152
2023-05-21T11:06:24.716Z,51.216221
2023-05-21T11:07:24.738Z,51.216171
2023-05-21T11:08:24.683Z,51.216209
2023-05-21T11:09:24.683Z,51.216187
2023-05-21T11:10:24.693Z,51.216156
2023-05-21T11:11:24.667Z,51.216164
2023-05-21T11:12:24.663Z,51.216221
2023-05-21T11:13:24.680Z,51.216160
2023-05-21T11:14:24.656Z,51.216148
2023-05-21T11:15:24.730Z,51.216190
2023-05-21T11:16:24.689Z,51.216156
2023-05-21T11:17:24.650Z,51.216156
2023-05-21T11:18:24.616Z,51.216251
2023-05-21T11:19:24.643Z,51.216171
2023-05-21T11:20:24.623Z,51.216137
2023-05-21T11:21:24.600Z,51.216118
2023-05-21T11:22:24.615Z,51.216114
2023-05-21T11:23:24.591Z,51.216171
2023-05-21T11:24:24.579Z,51.216148
2023-05-21T11:25:24.584Z,51.216095
2023-05-21T11:26:24.571Z,51.216080